createdAt,value
2023-05-16T00:02:35.328Z,10.56
2023-05-16T00:05:22.551Z,10.54
2023-05-16T00:08:09.457Z,10.50
2023-05-16T00:10:56.553Z,10.46
2023-05-16T00:13:43.494Z,10.50
2023-05-16T00:16:30.554Z,10.48
2023-05-16T00:19:17.722Z,10.26
2023-05-16T00:22:04.938Z,10.43
2023-05-16T00:24:53.344Z,10.39
2023-05-16T00:27:40.323Z,10.31
2023-05-16T00:30:29.873Z,10.36
2023-05-16T00:33:17.052Z,10.29
2023-05-16T00:36:04.122Z,10.12
2023-05-16T00:38:51.114Z,10.03
2023-05-16T00:41:38.286Z,10.25
2023-05-16T00:44:25.958Z,10.25
2023-05-16T00:47:14.387Z,9.98
2023-05-16T00:50:01.801Z,10.21
2023-05-16T00:52:49.336Z,9.98
2023-05-16T00:55:36.608Z,10.24
2023-05-16T00:58:25.592Z,10.22
2023-05-16T01:01:13.063Z,10.22
2023-05-16T01:04:00.328Z,9.97
2023-05-16T01:06:47.773Z,10.01
2023-05-16T01:09:34.996Z,10.10
2023-05-16T01:12:49.185Z,10.14
2023-05-16T01:15:45.603Z,10.13
2023-05-16T01:18:32.647Z,10.15
2023-05-16T01:21:24.138Z,10.12
2023-05-16T01:24:43.158Z,10.09
2023-05-16T01:27:31.774Z,10.04
2023-05-16T01:30:18.831Z,10.09
2023-05-16T01:33:06.136Z,10.07
2023-05-16T01:35:56.720Z,10.09
2023-05-16T01:38:50.968Z,10.03
2023-05-16T01:41:56.506Z,10.09
2023-05-16T01:44:52.775Z,10.09
2023-05-16T01:47:43.639Z,10.10
2023-05-16T01:50:35.178Z,10.10
2023-05-16T01:53:34.789Z,9.81
2023-05-16T01:56:22.756Z,9.75
2023-05-16T01:59:12.016Z,10.13
2023-05-16T02:01:59.120Z,10.12
2023-05-16T02:04:46.344Z,10.14
2023-05-16T02:07:35.899Z,10.14
2023-05-16T02:10:23.095Z,10.14
2023-05-16T02:13:11.076Z,10.11
2023-05-16T02:15:58.205Z,10.11
2023-05-16T02:18:45.174Z,10.09
2023-05-16T02:21:32.368Z,10.09
2023-05-16T02:24:19.365Z,10.09
2023-05-16T02:27:06.390Z,10.11
2023-05-16T02:29:53.382Z,10.11
2023-05-16T02:32:40.478Z,10.14
2023-05-16T02:35:28.730Z,10.15
2023-05-16T02:38:16.783Z,10.16
2023-05-16T02:41:03.804Z,10.16
2023-05-16T02:43:50.847Z,10.15
2023-05-16T02:46:43.060Z,10.17
2023-05-16T02:49:30.339Z,10.08
2023-05-16T02:52:17.222Z,10.15
2023-05-16T02:55:21.159Z,10.20
2023-05-16T02:58:11.229Z,10.18
2023-05-16T03:00:58.341Z,10.18
2023-05-16T03:03:45.953Z,9.77
2023-05-16T03:06:33.727Z,10.21
2023-05-16T03:09:20.755Z,10.02
2023-05-16T03:12:07.867Z,9.94
2023-05-16T03:14:55.075Z,10.13
2023-05-16T03:17:42.189Z,10.08
2023-05-16T03:20:29.848Z,10.19
2023-05-16T03:23:16.783Z,10.20
2023-05-16T03:26:03.826Z,10.20
2023-05-16T03:28:50.854Z,10.27
2023-05-16T03:31:39.199Z,10.21
2023-05-16T03:34:26.213Z,10.31
2023-05-16T03:37:13.446Z,10.34
2023-05-16T03:40:00.467Z,10.37
2023-05-16T03:42:47.405Z,10.35
2023-05-16T03:45:34.481Z,10.39
2023-05-16T03:48:21.492Z,10.42
2023-05-16T03:51:09.110Z,10.47
2023-05-16T03:53:57.406Z,10.31
2023-05-16T03:56:44.389Z,10.57
2023-05-16T03:59:31.334Z,10.62
2023-05-16T04:02:19.117Z,10.67
2023-05-16T04:05:06.280Z,10.72
2023-05-16T04:07:53.420Z,10.74
2023-05-16T04:10:40.737Z,10.80
2023-05-16T04:13:27.817Z,10.84
2023-05-16T04:16:14.817Z,10.85
2023-05-16T04:19:02.007Z,10.91
2023-05-16T04:21:49.083Z,10.96
2023-05-16T04:24:36.027Z,10.98
2023-05-16T04:27:23.231Z,11.00
2023-05-16T04:30:10.229Z,11.02
2023-05-16T04:32:57.415Z,11.05
2023-05-16T04:35:44.506Z,11.08
2023-05-16T04:38:31.521Z,11.08
2023-05-16T04:41:18.603Z,11.09
2023-05-16T04:44:05.616Z,11.07
2023-05-16T04:46:52.750Z,11.13
2023-05-16T04:49:40.396Z,11.15
2023-05-16T04:52:31.159Z,11.18
2023-05-16T04:55:18.046Z,11.19
2023-05-16T04:58:05.017Z,11.21
2023-05-16T05:00:51.928Z,11.23
2023-05-16T05:03:38.863Z,11.26
2023-05-16T05:06:26.130Z,11.30
2023-05-16T05:09:14.250Z,11.34
2023-05-16T05:12:01.068Z,11.38
2023-05-16T05:14:47.943Z,11.41
2023-05-16T05:17:35.027Z,11.45
2023-05-16T05:20:22.216Z,11.37
2023-05-16T05:23:09.153Z,11.52
2023-05-16T05:25:57.166Z,11.47
2023-05-16T05:28:53.735Z,11.61
2023-05-16T05:31:44.765Z,11.66
2023-05-16T05:34:31.761Z,11.69
2023-05-16T05:37:18.983Z,11.77
2023-05-16T05:40:06.018Z,11.61
2023-05-16T05:42:53.146Z,11.85
2023-05-16T05:45:40.206Z,11.94
2023-05-16T05:48:27.595Z,11.91
2023-05-16T05:51:14.622Z,12.05
2023-05-16T05:54:02.091Z,12.14
2023-05-16T05:56:49.034Z,12.21
2023-05-16T05:59:36.246Z,12.29
2023-05-16T06:02:23.617Z,12.30
2023-05-16T06:05:10.907Z,12.41
2023-05-16T06:07:57.921Z,12.47
2023-05-16T06:10:45.281Z,12.57
2023-05-16T06:13:32.207Z,12.61
2023-05-16T06:16:19.401Z,12.70
2023-05-16T06:19:06.503Z,12.82
2023-05-16T06:21:53.784Z,12.55
2023-05-16T06:24:40.993Z,12.97
2023-05-16T06:27:29.025Z,13.10
2023-05-16T06:30:16.201Z,13.23
2023-05-16T06:33:03.158Z,13.32
2023-05-16T06:35:50.218Z,13.39
2023-05-16T06:38:39.084Z,13.49
2023-05-16T06:41:25.977Z,13.58
2023-05-16T06:44:12.966Z,13.67
2023-05-16T06:47:00.361Z,13.56
2023-05-16T06:49:47.434Z,13.86
2023-05-16T06:52:34.728Z,13.94
2023-05-16T06:55:21.913Z,13.99
2023-05-16T06:58:08.994Z,14.13
2023-05-16T07:00:56.120Z,14.21
2023-05-16T07:03:43.257Z,14.31
2023-05-16T07:06:30.275Z,14.30
2023-05-16T07:09:17.845Z,14.58
2023-05-16T07:12:05.196Z,14.72
2023-05-16T07:14:52.159Z,14.77
2023-05-16T07:17:39.263Z,14.96
2023-05-16T07:20:27.190Z,15.08
2023-05-16T07:23:14.359Z,15.26
2023-05-16T07:26:01.474Z,15.37
2023-05-16T07:28:48.633Z,15.48
2023-05-16T07:31:36.100Z,15.59
2023-05-16T07:34:23.341Z,15.69
2023-05-16T07:37:10.349Z,15.81
2023-05-16T07:39:57.437Z,15.94
2023-05-16T07:42:44.906Z,16.04
2023-05-16T07:45:32.021Z,16.13
2023-05-16T07:48:18.956Z,16.18
2023-05-16T07:51:06.063Z,16.35
2023-05-16T07:53:52.997Z,16.44
2023-05-16T07:56:40.187Z,16.55
2023-05-16T07:59:28.204Z,16.66
2023-05-16T08:02:15.443Z,16.78
2023-05-16T08:05:02.439Z,16.89
2023-05-16T08:07:49.636Z,16.88
2023-05-16T08:10:36.766Z,17.08
2023-05-16T08:13:23.985Z,17.18
2023-05-16T08:16:11.137Z,17.29
2023-05-16T08:18:58.265Z,17.27
2023-05-16T08:21:45.277Z,17.47
2023-05-16T08:24:32.402Z,17.55
2023-05-16T08:27:19.469Z,17.62
2023-05-16T08:30:06.479Z,17.72
2023-05-16T08:32:53.910Z,17.80
2023-05-16T08:35:40.902Z,17.89
2023-05-16T08:38:27.884Z,17.98
2023-05-16T08:41:15.058Z,18.09
2023-05-16T08:44:02.281Z,18.19
2023-05-16T08:46:49.657Z,18.30
2023-05-16T08:49:38.134Z,18.39
2023-05-16T08:52:28.790Z,18.46
2023-05-16T08:55:19.302Z,18.55
2023-05-16T08:58:09.430Z,18.64
2023-05-16T09:00:56.436Z,18.73
2023-05-16T09:03:43.688Z,18.80
2023-05-16T09:06:30.864Z,18.86
2023-05-16T09:09:17.943Z,18.89
2023-05-16T09:12:05.032Z,19.02
2023-05-16T09:14:52.317Z,18.84
2023-05-16T09:17:41.437Z,19.18
2023-05-16T09:20:33.281Z,19.26
2023-05-16T09:23:20.482Z,19.34
2023-05-16T09:26:07.679Z,19.41
2023-05-16T09:28:58.254Z,19.47
2023-05-16T09:31:49.428Z,19.56
2023-05-16T09:34:36.806Z,19.61
2023-05-16T09:37:23.752Z,19.68
2023-05-16T09:40:13.067Z,19.75
2023-05-16T09:43:00.014Z,19.79
2023-05-16T09:45:47.098Z,19.82
2023-05-16T09:48:35.059Z,19.97
2023-05-16T09:51:26.010Z,20.04
2023-05-16T09:54:13.120Z,20.12
2023-05-16T09:57:10.000Z,20.12
2023-05-16T09:59:58.671Z,20.39
2023-05-16T10:02:46.624Z,20.52
2023-05-16T10:05:33.806Z,20.65
2023-05-16T10:08:23.344Z,20.68
2023-05-16T10:11:19.158Z,20.80
2023-05-16T10:14:08.011Z,20.88
2023-05-16T10:16:55.932Z,20.93
2023-05-16T10:19:45.403Z,20.95
2023-05-16T10:22:33.684Z,20.95
2023-05-16T10:25:42.606Z,20.93
2023-05-16T10:28:29.935Z,20.90
2023-05-16T10:31:18.013Z,20.88
2023-05-16T10:34:05.034Z,20.80
2023-05-16T10:36:52.374Z,20.70
2023-05-16T10:39:39.739Z,20.71
2023-05-16T10:42:27.403Z,20.64
2023-05-16T10:45:15.229Z,20.58
2023-05-16T10:48:11.134Z,20.54
2023-05-16T10:51:04.288Z,20.49
2023-05-16T10:53:56.027Z,20.46
2023-05-16T10:56:45.302Z,20.41
2023-05-16T10:59:45.715Z,20.36
2023-05-16T11:02:45.985Z,20.32
2023-05-16T11:05:39.270Z,20.28
2023-05-16T11:08:26.674Z,20.08
2023-05-16T11:11:52.262Z,20.19
2023-05-16T11:14:45.140Z,20.16
2023-05-16T11:17:55.858Z,20.13
2023-05-16T11:20:56.632Z,20.13
2023-05-16T11:23:45.265Z,20.12
2023-05-16T11:26:33.333Z,20.00
2023-05-16T11:29:21.419Z,20.03
2023-05-16T11:32:08.411Z,20.05
2023-05-16T11:34:56.561Z,20.07
2023-05-16T11:37:44.061Z,20.05
2023-05-16T11:40:32.606Z,20.06
2023-05-16T11:43:21.066Z,20.06
2023-05-16T11:46:15.018Z,19.88
2023-05-16T11:49:02.379Z,19.96
2023-05-16T11:51:49.502Z,19.94
2023-05-16T11:54:38.250Z,19.86
2023-05-16T11:57:25.550Z,19.84
2023-05-16T12:00:13.702Z,19.82
2023-05-16T12:03:01.271Z,19.76
2023-05-16T12:05:48.624Z,19.77
2023-05-16T12:08:36.429Z,19.72
2023-05-16T12:11:23.658Z,19.77
2023-05-16T12:14:10.971Z,19.62
2023-05-16T12:16:59.366Z,19.70
2023-05-16T12:19:46.767Z,19.76
2023-05-16T12:22:37.706Z,19.79
2023-05-16T12:25:47.739Z,19.80
2023-05-16T12:28:36.067Z,19.80
2023-05-16T12:31:31.861Z,19.69
2023-05-16T12:34:19.848Z,19.75
2023-05-16T12:37:11.918Z,19.68
2023-05-16T12:39:59.285Z,19.65
2023-05-16T12:42:47.562Z,19.60
2023-05-16T12:45:35.728Z,19.33
2023-05-16T12:48:29.002Z,19.43
2023-05-16T12:51:16.047Z,19.43
2023-05-16T12:57:00.202Z,19.33
2023-05-16T12:59:47.198Z,19.29
2023-05-16T13:02:34.894Z,19.14
2023-05-16T13:05:24.664Z,19.18
2023-05-16T13:08:11.873Z,19.13
2023-05-16T13:10:58.868Z,19.03
2023-05-16T13:13:45.975Z,19.02
2023-05-16T13:16:33.168Z,19.04
2023-05-16T13:19:20.500Z,19.04
2023-05-16T13:22:07.488Z,19.05
2023-05-16T13:24:54.703Z,19.05
2023-05-16T13:27:41.715Z,19.05
2023-05-16T13:30:29.228Z,19.05
2023-05-16T13:33:16.294Z,19.07
2023-05-16T13:36:08.365Z,19.08
2023-05-16T13:38:56.596Z,19.08
2023-05-16T13:41:44.089Z,19.11
2023-05-16T13:44:31.474Z,19.14
2023-05-16T13:47:20.759Z,18.89
2023-05-16T13:50:07.885Z,19.23
2023-05-16T13:52:55.354Z,19.27
2023-05-16T13:55:42.495Z,19.30
2023-05-16T13:58:30.388Z,19.22
2023-05-16T14:00:57.628Z,19.29
2023-05-16T14:03:24.758Z,19.36
2023-05-16T14:05:52.046Z,19.36
2023-05-16T14:08:19.097Z,19.36
2023-05-16T14:10:46.237Z,19.34
2023-05-16T14:13:13.189Z,19.31
2023-05-16T14:15:40.598Z,19.35
2023-05-16T14:18:08.275Z,19.28
2023-05-16T14:20:35.918Z,19.28
2023-05-16T14:23:03.135Z,19.35
2023-05-16T14:25:30.392Z,19.32
2023-05-16T14:27:57.732Z,19.34
2023-05-16T14:30:25.051Z,19.34
2023-05-16T14:32:52.194Z,19.26
2023-05-16T14:35:39.202Z,19.32
2023-05-16T14:38:26.377Z,19.33
2023-05-16T14:41:13.449Z,19.34
2023-05-16T14:44:00.799Z,19.26
2023-05-16T14:46:48.135Z,19.18
2023-05-16T14:49:35.384Z,19.06
2023-05-16T14:52:22.324Z,18.92
2023-05-16T14:55:09.517Z,18.83
2023-05-16T14:57:59.569Z,18.75
2023-05-16T15:00:47.430Z,18.63
2023-05-16T15:03:53.671Z,18.44
2023-05-16T15:06:42.944Z,18.02
2023-05-16T15:09:29.973Z,18.13
2023-05-16T15:12:17.130Z,17.91
2023-05-16T15:15:04.097Z,17.75
2023-05-16T15:17:51.349Z,17.53
2023-05-16T15:20:38.603Z,17.33
2023-05-16T15:23:28.009Z,16.86
2023-05-16T15:26:15.156Z,16.90
2023-05-16T15:29:02.301Z,16.74
2023-05-16T15:31:49.273Z,16.60
2023-05-16T15:34:36.323Z,16.46
2023-05-16T15:37:23.366Z,16.25
2023-05-16T15:40:10.492Z,16.18
2023-05-16T15:42:57.496Z,16.03
2023-05-16T15:45:44.832Z,15.75
2023-05-16T15:48:32.037Z,15.88
2023-05-16T15:51:19.121Z,15.84
2023-05-16T15:54:07.389Z,15.78
2023-05-16T15:56:54.529Z,15.69
2023-05-16T15:59:41.445Z,15.60
2023-05-16T16:02:28.618Z,15.53
2023-05-16T16:05:15.777Z,15.49
2023-05-16T16:08:02.993Z,15.45
2023-05-16T16:10:49.956Z,15.42
2023-05-16T16:13:36.969Z,15.41
2023-05-16T16:16:23.966Z,15.39
2023-05-16T16:19:11.049Z,15.06
2023-05-16T16:21:58.062Z,15.31
2023-05-16T16:24:45.123Z,15.23
2023-05-16T16:27:32.050Z,15.24
2023-05-16T16:30:19.144Z,15.24
2023-05-16T16:33:06.419Z,15.21
2023-05-16T16:35:53.824Z,15.20
2023-05-16T16:38:41.176Z,15.18
2023-05-16T16:41:28.305Z,15.13
2023-05-16T16:44:15.334Z,15.18
2023-05-16T16:47:02.874Z,15.15
2023-05-16T16:49:50.144Z,15.17
2023-05-16T16:52:37.182Z,15.18
2023-05-16T16:55:24.819Z,15.20
2023-05-16T16:58:11.943Z,15.21
2023-05-16T17:00:58.898Z,15.15
2023-05-16T17:03:46.024Z,15.17
2023-05-16T17:06:33.293Z,15.20
2023-05-16T17:09:20.441Z,15.19
2023-05-16T17:12:07.491Z,15.14
2023-05-16T17:14:54.982Z,15.12
2023-05-16T17:17:42.818Z,15.03
2023-05-16T17:20:30.284Z,15.16
2023-05-16T17:23:17.383Z,15.17
2023-05-16T17:26:04.465Z,15.17
2023-05-16T17:28:51.529Z,15.16
2023-05-16T17:31:38.696Z,15.14
2023-05-16T17:34:25.648Z,15.09
2023-05-16T17:37:12.801Z,14.88
2023-05-16T17:39:59.742Z,15.06
2023-05-16T17:42:46.798Z,15.01
2023-05-16T17:45:34.441Z,14.98
2023-05-16T17:48:21.751Z,14.90
2023-05-16T17:51:08.852Z,14.46
2023-05-16T17:53:55.995Z,14.84
2023-05-16T17:56:43.031Z,14.84
2023-05-16T17:59:30.157Z,14.83
2023-05-16T18:02:20.197Z,14.80
2023-05-16T18:05:07.397Z,14.76
2023-05-16T18:07:54.354Z,14.69
2023-05-16T18:10:51.102Z,14.67
2023-05-16T18:13:39.795Z,14.44
2023-05-16T18:16:27.051Z,14.59
2023-05-16T18:19:14.324Z,14.41
2023-05-16T18:22:01.459Z,14.54
2023-05-16T18:24:48.378Z,14.48
2023-05-16T18:27:35.772Z,14.46
2023-05-16T18:30:23.687Z,14.28
2023-05-16T18:33:10.975Z,14.40
2023-05-16T18:35:57.885Z,14.36
2023-05-16T18:38:45.131Z,14.32
2023-05-16T18:41:32.335Z,14.28
2023-05-16T18:44:19.287Z,14.24
2023-05-16T18:47:06.925Z,14.18
2023-05-16T18:49:54.072Z,14.06
2023-05-16T18:52:41.142Z,14.06
2023-05-16T18:55:28.922Z,13.99
2023-05-16T18:58:16.072Z,13.94
2023-05-16T19:01:03.072Z,13.69
2023-05-16T19:03:50.455Z,13.87
2023-05-16T19:06:37.678Z,13.84
2023-05-16T19:09:28.312Z,13.81
2023-05-16T19:12:15.327Z,13.77
2023-05-16T19:15:02.333Z,13.75
2023-05-16T19:17:49.512Z,13.71
2023-05-16T19:20:36.754Z,13.66
2023-05-16T19:23:24.035Z,13.63
2023-05-16T19:26:10.945Z,13.59
2023-05-16T19:28:58.192Z,13.52
2023-05-16T19:31:45.157Z,13.48
2023-05-16T19:34:32.275Z,13.50
2023-05-16T19:37:19.499Z,13.35
2023-05-16T19:40:06.456Z,13.31
2023-05-16T19:42:53.481Z,13.38
2023-05-16T19:45:41.358Z,13.29
2023-05-16T19:48:28.925Z,13.27
2023-05-16T19:51:17.856Z,13.35
2023-05-16T19:54:08.484Z,13.38
2023-05-16T19:56:56.255Z,13.34
2023-05-16T19:59:43.443Z,13.37
2023-05-16T20:02:30.511Z,13.32
2023-05-16T20:05:18.216Z,13.33
2023-05-16T20:08:06.108Z,13.26
2023-05-16T20:10:53.121Z,13.29
2023-05-16T20:13:43.274Z,13.25
2023-05-16T20:16:30.370Z,13.23
2023-05-16T20:19:18.387Z,13.22
2023-05-16T20:22:05.984Z,13.19
2023-05-16T20:24:53.565Z,13.17
2023-05-16T20:27:40.610Z,13.14
2023-05-16T20:30:28.167Z,13.10
2023-05-16T20:33:15.193Z,13.11
2023-05-16T20:36:02.336Z,13.07
2023-05-16T20:38:49.395Z,13.07
2023-05-16T20:41:36.389Z,13.06
2023-05-16T20:44:23.369Z,13.05
2023-05-16T20:47:10.550Z,13.04
2023-05-16T20:49:57.425Z,13.04
2023-05-16T20:52:44.542Z,13.02
2023-05-16T20:55:31.561Z,13.03
2023-05-16T20:58:18.649Z,13.02
2023-05-16T21:01:05.572Z,13.01
2023-05-16T21:03:52.831Z,13.00
2023-05-16T21:06:39.877Z,12.98
2023-05-16T21:09:26.923Z,12.95
2023-05-16T21:12:13.859Z,12.93
2023-05-16T21:15:00.994Z,12.93
2023-05-16T21:17:48.179Z,12.90
2023-05-16T21:20:35.375Z,12.60
2023-05-16T21:23:22.296Z,12.50
2023-05-16T21:26:09.537Z,12.87
2023-05-16T21:28:56.605Z,12.84
2023-05-16T21:31:43.834Z,12.86
2023-05-16T21:34:30.942Z,12.85
2023-05-16T21:37:18.030Z,12.86
2023-05-16T21:40:04.955Z,12.86
2023-05-16T21:42:52.149Z,12.86
2023-05-16T21:45:39.257Z,12.86
2023-05-16T21:48:26.890Z,12.86
2023-05-16T21:51:13.931Z,12.84
2023-05-16T21:54:00.963Z,12.82
2023-05-16T21:56:48.079Z,12.82
2023-05-16T21:59:35.044Z,12.81
2023-05-16T22:02:22.006Z,12.78
2023-05-16T22:05:15.026Z,12.75
2023-05-16T22:08:02.505Z,12.76
2023-05-16T22:10:49.861Z,12.77
2023-05-16T22:13:36.981Z,12.76
2023-05-16T22:16:24.543Z,12.76
2023-05-16T22:19:11.617Z,12.75
2023-05-16T22:21:58.714Z,12.75
2023-05-16T22:24:45.725Z,12.75
2023-05-16T22:27:33.213Z,12.75
2023-05-16T22:30:20.285Z,12.70
2023-05-16T22:33:07.418Z,12.74
2023-05-16T22:35:54.552Z,12.63
2023-05-16T22:38:41.738Z,12.76
2023-05-16T22:41:28.701Z,12.76
2023-05-16T22:44:15.861Z,12.65
2023-05-16T22:47:03.040Z,12.44
2023-05-16T22:49:50.227Z,12.69
2023-05-16T22:52:37.205Z,12.74
2023-05-16T22:55:24.383Z,12.73
2023-05-16T22:58:11.532Z,12.53
2023-05-16T23:00:58.679Z,12.69
2023-05-16T23:03:45.870Z,12.66
2023-05-16T23:06:32.920Z,12.63
2023-05-16T23:09:23.273Z,12.61
2023-05-16T23:12:10.307Z,12.55
2023-05-16T23:14:57.582Z,12.56
2023-05-16T23:17:44.925Z,12.54
2023-05-16T23:20:32.137Z,12.50
2023-05-16T23:23:19.358Z,12.49
2023-05-16T23:26:06.549Z,12.47
2023-05-16T23:28:53.704Z,12.46
2023-05-16T23:31:40.735Z,12.40
2023-05-16T23:34:27.894Z,12.37
2023-05-16T23:37:14.844Z,12.30
2023-05-16T23:40:02.346Z,12.25
2023-05-16T23:42:49.440Z,12.23
2023-05-16T23:45:36.767Z,12.10
2023-05-16T23:48:24.698Z,12.16
2023-05-16T23:51:12.131Z,12.13
2023-05-16T23:53:59.377Z,12.12
2023-05-16T23:56:46.517Z,12.09
2023-05-16T23:59:33.870Z,12.07
